Time;durP1;ratioP1;P1;durP2;ratioP2;P2;SDS_P1;SDS_P2;PMS_P1;PMS_P2;Temp;Humidity;BMP_temperature;BMP_pressure;BME280_temperature;BME280_humidity;BME280_pressure;Samples;Min_cycle;Max_cycle;Signal;HPM_P1;HPM_P2
2022/12/18 00:00:56;;;;;;;21.57;19.13;;;;;;;-8.42;100.00;99744.75;4199433;28;20599;-61
2022/12/18 00:02:58;;;;;;;29.70;18.63;;;;;;;-8.57;100.00;99752.88;4180792;28;20230;-64
2022/12/18 00:05:00;;;;;;;18.20;16.57;;;;;;;-8.44;100.00;99743.16;4198417;28;20671;-62
2022/12/18 00:07:02;;;;;;;20.40;18.40;;;;;;;-8.42;100.00;99744.75;4185308;28;20307;-61
2022/12/18 00:09:04;;;;;;;28.70;19.13;;;;;;;-8.35;100.00;99735.44;4186347;28;20207;-62
2022/12/18 00:11:08;;;;;;;23.77;17.53;;;;;;;-8.38;100.00;99730.34;4187047;28;20735;-63
2022/12/18 00:13:10;;;;;;;17.33;15.23;;;;;;;-8.38;100.00;99735.66;4197746;28;20289;-63
2022/12/18 00:15:12;;;;;;;21.07;17.37;;;;;;;-8.39;100.00;99736.59;4199317;28;20334;-62
2022/12/18 00:17:13;;;;;;;19.20;15.87;;;;;;;-8.40;100.00;99734.91;4199209;28;20236;-62
2022/12/18 00:19:16;;;;;;;18.73;16.87;;;;;;;-8.41;100.00;99738.47;4190153;28;20217;-62
2022/12/18 00:21:19;;;;;;;19.40;17.80;;;;;;;-8.37;100.00;99724.06;4216246;28;20225;-62
2022/12/18 00:23:20;;;;;;;20.13;17.37;;;;;;;-8.35;99.44;99730.13;4199756;28;20225;-62
2022/12/18 00:25:23;;;;;;;20.00;17.67;;;;;;;-8.41;99.54;99730.53;4186023;28;20199;-64
2022/12/18 00:27:24;;;;;;;15.87;14.40;;;;;;;-8.50;100.00;99747.06;4182535;28;20251;-63
2022/12/18 00:29:26;;;;;;;25.77;16.30;;;;;;;-8.53;100.00;99752.59;4195356;28;20227;-61
2022/12/18 00:31:28;;;;;;;17.77;15.17;;;;;;;-8.53;100.00;99755.25;4187710;28;20301;-60
2022/12/18 00:33:30;;;;;;;25.40;16.93;;;;;;;-8.49;100.00;99759.38;4184763;28;20212;-62
2022/12/18 00:35:32;;;;;;;22.80;17.73;;;;;;;-8.49;100.00;99753.22;4188327;28;20215;-64
2022/12/18 00:37:34;;;;;;;20.87;15.50;;;;;;;-8.42;99.32;99752.69;4198408;28;20227;-62
2022/12/18 00:39:36;;;;;;;16.77;13.67;;;;;;;-8.33;99.14;99754.78;4194409;28;20242;-62
2022/12/18 00:43:58;;;;;;;23.27;16.27;;;;;;;-8.41;98.60;99749.09;4206290;28;20198;-64
2022/12/18 00:46:00;;;;;;;22.20;18.53;;;;;;;-8.47;98.98;99752.19;4213634;28;20297;-62
2022/12/18 00:48:02;;;;;;;22.53;16.07;;;;;;;-8.50;99.44;99759.50;4202375;28;20690;-62
2022/12/18 00:50:05;;;;;;;17.00;15.53;;;;;;;-8.44;99.57;99753.75;4184690;28;20253;-61
2022/12/18 00:52:07;;;;;;;16.17;13.57;;;;;;;-8.54;99.75;99758.81;4184677;28;20235;-62
2022/12/18 00:54:09;;;;;;;24.87;15.50;;;;;;;-8.54;99.84;99757.97;4194663;28;20231;-60
2022/12/18 00:56:11;;;;;;;16.87;15.23;;;;;;;-8.41;99.06;99748.25;4184849;28;20215;-62
2022/12/18 00:58:15;;;;;;;16.63;14.97;;;;;;;-8.53;98.89;99747.28;4196246;28;20758;-61
2022/12/18 01:00:17;;;;;;;20.07;13.57;;;;;;;-8.48;98.78;99734.53;4186609;28;20742;-63
2022/12/18 01:02:18;;;;;;;21.13;14.73;;;;;;;-8.57;98.02;99735.16;4214763;27;20729;-64
2022/12/18 01:04:20;;;;;;;17.97;16.17;;;;;;;-8.55;98.61;99722.63;4201977;28;20225;-62
2022/12/18 01:06:22;;;;;;;17.20;15.00;;;;;;;-8.53;98.30;99723.41;4185906;28;20234;-61
2022/12/18 01:08:24;;;;;;;18.03;16.23;;;;;;;-8.68;98.52;99735.00;4205874;28;20671;-62
2022/12/18 01:10:26;;;;;;;15.60;13.23;;;;;;;-8.64;98.96;99725.91;4190410;28;20781;-60
2022/12/18 01:12:28;;;;;;;22.53;18.03;;;;;;;-8.74;99.07;99743.38;4184363;28;20295;-62
2022/12/18 01:14:30;;;;;;;20.60;13.13;;;;;;;-8.74;99.26;99746.00;4207146;28;20238;-62
2022/12/18 01:16:31;;;;;;;20.00;16.37;;;;;;;-8.65;99.35;99747.22;4201067;28;20229;-63
2022/12/18 01:18:33;;;;;;;19.03;17.00;;;;;;;-8.56;99.18;99736.03;4190513;28;20280;-62
2022/12/18 01:20:35;;;;;;;15.53;14.03;;;;;;;-8.53;98.76;99731.38;4200915;28;20206;-64
2022/12/18 01:22:37;;;;;;;15.53;13.47;;;;;;;-8.60;99.38;99730.06;4189134;28;20289;-61
2022/12/18 01:24:39;;;;;;;21.13;13.30;;;;;;;-8.54;99.24;99745.56;4191929;28;20314;-61
2022/12/18 01:26:41;;;;;;;15.87;14.43;;;;;;;-8.54;99.82;99734.13;4186767;28;20966;-61
2022/12/18 01:28:46;;;;;;;17.63;15.93;;;;;;;-8.56;99.75;99731.56;4192505;28;20333;-63
2022/12/18 01:30:49;;;;;;;23.40;16.57;;;;;;;-8.59;99.56;99737.06;4190233;28;20233;-62
2022/12/18 01:32:50;;;;;;;22.70;14.30;;;;;;;-8.52;99.60;99738.38;4201264;28;20302;-63
2022/12/18 01:34:52;;;;;;;18.63;16.77;;;;;;;-8.67;100.00;99743.84;4188810;28;20247;-62
2022/12/18 01:36:54;;;;;;;17.63;13.27;;;;;;;-8.72;100.00;99741.47;4199985;28;20317;-60
2022/12/18 01:39:00;;;;;;;18.10;15.77;;;;;;;-8.65;99.67;99741.91;4199427;28;20298;-63
2022/12/18 01:41:02;;;;;;;22.93;15.27;;;;;;;-8.70;99.81;99739.56;4201974;28;20203;-62
2022/12/18 01:43:04;;;;;;;13.67;12.37;;;;;;;-8.55;100.00;99727.94;4192881;28;20294;-62
2022/12/18 01:45:11;;;;;;;15.37;13.77;;;;;;;-8.67;99.53;99763.25;4196060;28;20213;-61
2022/12/18 01:47:16;;;;;;;14.63;13.17;;;;;;;-8.63;99.61;99767.38;4204360;28;20312;-61
2022/12/18 01:49:18;;;;;;;19.43;15.63;;;;;;;-8.63;99.80;99772.69;4191825;28;20657;-65
2022/12/18 01:51:20;;;;;;;20.67;15.17;;;;;;;-8.70;99.61;99760.78;4189084;28;20290;-63
2022/12/18 01:53:23;;;;;;;18.70;16.83;;;;;;;-8.59;99.58;99774.22;4210270;28;20653;-63
2022/12/18 01:55:28;;;;;;;18.57;14.77;;;;;;;-8.63;99.78;99777.16;4196914;28;20247;-63
2022/12/18 01:57:30;;;;;;;16.37;14.63;;;;;;;-8.56;99.97;99779.28;4200543;28;20288;-62
2022/12/18 01:59:33;;;;;;;16.00;14.47;;;;;;;-8.56;100.00;99774.00;4197397;28;20210;-63
2022/12/18 02:01:37;;;;;;;13.17;12.07;;;;;;;-8.65;100.00;99766.66;4198253;28;20238;-63
2022/12/18 02:03:43;;;;;;;21.70;14.50;;;;;;;-8.57;100.00;99772.28;4188862;28;20214;-62
2022/12/18 02:06:06;;;;;;;19.90;15.03;;;;;;;-8.47;100.00;99768.09;4200594;28;20290;-62
2022/12/18 02:08:12;;;;;;;20.20;13.80;;;;;;;-8.53;100.00;99773.81;4200385;28;20231;-63
2022/12/18 02:10:20;;;;;;;15.37;13.77;;;;;;;-8.56;100.00;99778.47;4217871;27;20282;-63
2022/12/18 02:12:35;;;;;;;14.60;13.00;;;;;;;-8.54;100.00;99782.69;4203161;28;20698;-63
2022/12/18 02:14:59;;;;;;;17.10;15.67;;;;;;;-8.45;100.00;99783.88;4200703;28;20400;-64
2022/12/18 02:17:15;;;;;;;16.93;14.53;;;;;;;-8.51;99.98;99782.50;4185248;28;20282;-64
2022/12/18 02:19:35;;;;;;;14.97;12.87;;;;;;;-8.41;100.00;99778.28;4214656;27;20305;-64
2022/12/18 02:22:03;;;;;;;18.13;12.77;;;;;;;-8.56;100.00;99767.84;4204347;28;20207;-64
2022/12/18 02:24:33;;;;;;;26.57;15.73;;;;;;;-8.56;100.00;99768.69;4213483;27;20672;-62
2022/12/18 02:26:37;;;;;;;15.10;13.50;;;;;;;-8.57;100.00;99772.28;4206290;28;20335;-64
2022/12/18 02:28:46;;;;;;;22.53;16.17;;;;;;;-8.60;100.00;99772.50;4187824;28;20262;-64
2022/12/18 02:30:50;;;;;;;14.30;12.77;;;;;;;-8.54;100.00;99761.47;4203089;28;20658;-62
2022/12/18 02:32:52;;;;;;;17.63;13.33;;;;;;;-8.58;99.77;99752.03;4191183;28;20289;-63
2022/12/18 02:34:56;;;;;;;19.23;16.47;;;;;;;-8.69;99.87;99743.91;4199325;28;20226;-65
2022/12/18 02:37:01;;;;;;;23.87;15.43;;;;;;;-8.75;100.00;99749.63;4192414;28;20238;-62
2022/12/18 02:39:05;;;;;;;15.73;14.30;;;;;;;-8.84;100.00;99762.63;4202688;28;20680;-62
2022/12/18 02:41:07;;;;;;;22.60;16.47;;;;;;;-8.83;100.00;99764.34;4216631;28;20662;-62
2022/12/18 02:43:11;;;;;;;16.43;14.47;;;;;;;-8.79;100.00;99765.84;4207176;28;20234;-62
2022/12/18 02:45:13;;;;;;;23.73;16.13;;;;;;;-8.79;100.00;99750.78;4201982;28;20205;-64
2022/12/18 02:47:17;;;;;;;20.03;15.03;;;;;;;-8.72;100.00;99746.78;4198536;28;20256;-64
2022/12/18 02:49:28;;;;;;;16.00;14.63;;;;;;;-8.76;100.00;99739.97;4188212;28;20211;-64
2022/12/18 02:51:51;;;;;;;16.13;14.53;;;;;;;-8.69;100.00;99741.28;4217084;27;20569;-61
2022/12/18 02:54:08;;;;;;;19.67;16.87;;;;;;;-8.72;100.00;99740.63;4218697;27;20303;-63
2022/12/18 02:56:20;;;;;;;15.63;14.33;;;;;;;-8.63;100.00;99735.56;4200792;28;20413;-63
2022/12/18 02:58:40;;;;;;;17.03;15.37;;;;;;;-8.75;100.00;99725.75;4200889;28;20218;-62
2022/12/18 03:00:59;;;;;;;19.47;15.67;;;;;;;-8.78;100.00;99735.72;4198224;28;20215;-62
2022/12/18 03:03:05;;;;;;;14.87;13.57;;;;;;;-8.72;100.00;99740.63;4207236;28;20217;-62
2022/12/18 03:05:15;;;;;;;23.87;14.60;;;;;;;-8.73;100.00;99742.44;4188137;28;20204;-64
2022/12/18 03:07:21;;;;;;;23.80;14.50;;;;;;;-8.61;100.00;99749.56;4198985;28;20329;-63
2022/12/18 03:09:44;;;;;;;18.30;14.53;;;;;;;-8.61;100.00;99736.31;4187109;28;20298;-61
2022/12/18 03:14:16;;;;;;;18.07;16.50;;;;;;;-8.60;100.00;99740.69;4206151;28;20341;-64
2022/12/18 03:16:22;;;;;;;18.33;15.90;;;;;;;-8.64;100.00;99739.19;4183160;28;20837;-64
2022/12/18 03:18:34;;;;;;;22.90;16.03;;;;;;;-8.57;100.00;99735.16;4185531;28;20652;-62
2022/12/18 03:20:37;;;;;;;21.73;15.97;;;;;;;-8.58;100.00;99741.44;4199428;28;20203;-62
2022/12/18 03:22:40;;;;;;;16.27;14.97;;;;;;;-8.47;100.00;99733.63;4197401;28;20302;-63
2022/12/18 03:24:42;;;;;;;20.83;14.63;;;;;;;-8.52;100.00;99738.38;4199929;28;20250;-62
2022/12/18 03:26:47;;;;;;;21.87;15.13;;;;;;;-8.51;100.00;99729.44;4185643;28;20239;-61
2022/12/18 03:28:56;;;;;;;21.93;16.97;;;;;;;-8.48;100.00;99723.09;4183743;28;20275;-64
2022/12/18 03:31:00;;;;;;;23.80;15.77;;;;;;;-8.52;100.00;99722.47;4187004;28;20348;-62
2022/12/18 03:33:07;;;;;;;16.93;14.87;;;;;;;-8.48;100.00;99718.63;4187814;28;20651;-61
2022/12/18 03:35:11;;;;;;;17.43;15.83;;;;;;;-8.50;100.00;99720.53;4197602;28;20214;-63
2022/12/18 03:37:13;;;;;;;16.57;14.67;;;;;;;-8.50;100.00;99715.22;4194620;28;20261;-62
2022/12/18 03:39:14;;;;;;;18.33;15.27;;;;;;;-8.51;100.00;99729.44;4197970;28;20212;-62
2022/12/18 03:41:25;;;;;;;22.83;16.13;;;;;;;-8.55;100.00;99722.63;4189196;28;20213;-63
2022/12/18 03:43:36;;;;;;;13.60;12.50;;;;;;;-8.57;100.00;99735.16;4199640;28;20745;-64
2022/12/18 03:45:43;;;;;;;18.50;13.80;;;;;;;-8.57;100.00;99739.59;4205689;28;20211;-62
2022/12/18 03:47:47;;;;;;;20.77;16.73;;;;;;;-8.58;100.00;99725.50;4198762;28;20228;-64
2022/12/18 03:50:16;;;;;;;16.00;14.60;;;;;;;-8.57;100.00;99727.22;4199550;28;20305;-64
2022/12/18 03:52:22;;;;;;;18.97;16.97;;;;;;;-8.50;100.00;99731.16;4179044;28;20242;-64
2022/12/18 03:54:25;;;;;;;15.17;13.63;;;;;;;-8.53;100.00;99736.69;4190075;28;20643;-63
2022/12/18 03:56:30;;;;;;;16.10;12.97;;;;;;;-8.54;100.00;99729.63;4199734;28;20210;-63
2022/12/18 03:58:33;;;;;;;19.57;16.57;;;;;;;-8.51;100.00;99733.91;4183281;28;20310;-63
2022/12/18 04:00:35;;;;;;;21.30;14.50;;;;;;;-8.60;100.00;99740.69;4194724;28;20298;-65
2022/12/18 04:02:38;;;;;;;15.97;14.40;;;;;;;-8.59;100.00;99747.69;4182277;28;20208;-63
2022/12/18 04:04:40;;;;;;;24.23;13.13;;;;;;;-8.52;100.00;99738.38;4200566;28;20198;-61
2022/12/18 04:06:43;;;;;;;16.03;14.43;;;;;;;-8.53;100.00;99741.97;4188207;28;20285;-61
2022/12/18 04:08:45;;;;;;;20.97;15.30;;;;;;;-8.48;100.00;99739.00;4197748;28;20863;-63
2022/12/18 04:10:47;;;;;;;16.43;13.53;;;;;;;-8.57;100.00;99729.00;4216671;28;20677;-63
2022/12/18 04:12:49;;;;;;;21.37;14.40;;;;;;;-8.48;100.00;99729.25;4187097;28;20297;-63
2022/12/18 04:14:51;;;;;;;22.47;15.03;;;;;;;-8.60;100.00;99732.72;4194407;28;20302;-61
2022/12/18 04:16:52;;;;;;;13.37;11.93;;;;;;;-8.50;100.00;99731.16;4199209;28;20210;-63
2022/12/18 04:18:55;;;;;;;18.60;15.17;;;;;;;-8.62;100.00;99708.09;4187272;28;20302;-63
2022/12/18 04:20:57;;;;;;;18.63;14.60;;;;;;;-8.69;99.77;99704.16;4188122;28;20328;-63
2022/12/18 04:22:59;;;;;;;19.83;15.27;;;;;;;-8.72;99.88;99716.75;4187659;28;20235;-63
2022/12/18 04:25:00;;;;;;;18.03;15.77;;;;;;;-8.87;99.62;99723.06;4203130;28;20217;-62
2022/12/18 04:27:02;;;;;;;20.80;14.80;;;;;;;-8.94;100.00;99725.25;4199986;28;20727;-62
2022/12/18 04:29:06;;;;;;;19.67;17.87;;;;;;;-8.98;100.00;99729.06;4193264;28;20593;-63
2022/12/18 04:31:08;;;;;;;13.70;12.30;;;;;;;-8.89;99.92;99731.13;4200548;28;20245;-60
2022/12/18 04:33:29;;;;;;;15.07;13.67;;;;;;;-8.98;99.66;99733.50;4198910;28;20204;-60
2022/12/18 04:35:31;;;;;;;16.43;15.10;;;;;;;-9.02;99.59;99730.22;4183581;28;20286;-62
2022/12/18 04:37:33;;;;;;;17.57;15.60;;;;;;;-9.06;99.63;99726.06;4202216;28;20762;-61
2022/12/18 04:39:35;;;;;;;17.03;15.33;;;;;;;-9.11;99.45;99722.00;4191709;28;20220;-64
2022/12/18 04:41:37;;;;;;;22.93;14.50;;;;;;;-9.16;99.76;99727.59;4208998;28;20241;-61
2022/12/18 04:43:39;;;;;;;19.93;13.17;;;;;;;-9.02;99.67;99729.38;4203506;28;20239;-62
2022/12/18 04:45:41;;;;;;;18.70;17.00;;;;;;;-9.12;99.85;99726.47;4206217;28;20206;-62
2022/12/18 04:47:45;;;;;;;22.40;16.13;;;;;;;-9.12;100.00;99726.47;4187698;28;20249;-61
2022/12/18 04:49:47;;;;;;;17.80;13.43;;;;;;;-9.10;99.68;99724.56;4221247;27;20297;-60
2022/12/18 04:51:51;;;;;;;16.13;12.90;;;;;;;-9.12;99.50;99726.47;4199920;28;20219;-59
2022/12/18 04:53:53;;;;;;;15.87;14.40;;;;;;;-9.15;99.96;99736.41;4183220;28;20207;-60
2022/12/18 04:56:06;;;;;;;17.70;14.33;;;;;;;-9.18;99.88;99741.88;4201651;28;20210;-62
2022/12/18 04:58:07;;;;;;;17.57;13.40;;;;;;;-9.14;99.61;99746.88;4201101;28;20963;-62
2022/12/18 05:00:10;;;;;;;19.93;15.73;;;;;;;-9.18;99.49;99740.09;4187287;28;20690;-63
2022/12/18 05:02:12;;;;;;;18.10;16.27;;;;;;;-9.14;99.06;99741.59;4203056;28;20233;-61
2022/12/18 05:04:14;;;;;;;18.30;16.37;;;;;;;-9.25;99.32;99741.44;4189447;28;20212;-61
2022/12/18 05:06:16;;;;;;;22.20;17.53;;;;;;;-9.14;99.22;99728.34;4201559;28;21179;-61
2022/12/18 05:08:18;;;;;;;15.43;14.20;;;;;;;-9.21;99.10;99736.81;4199704;28;20262;-60
2022/12/18 05:10:20;;;;;;;15.93;14.50;;;;;;;-9.18;98.86;99716.25;4204798;28;20215;-61
2022/12/18 05:12:22;;;;;;;19.53;15.63;;;;;;;-9.30;98.90;99727.63;4185489;28;20667;-61
2022/12/18 05:14:24;;;;;;;16.00;14.50;;;;;;;-9.35;98.94;99726.22;4206351;28;20230;-60
2022/12/18 05:16:25;;;;;;;15.97;14.47;;;;;;;-9.36;98.97;99725.38;4207778;28;20202;-63
2022/12/18 05:18:28;;;;;;;15.37;14.10;;;;;;;-9.36;98.86;99728.03;4197528;28;20249;-62
2022/12/18 05:20:30;;;;;;;22.00;15.90;;;;;;;-9.41;99.05;99724.81;4203554;28;20281;-62
2022/12/18 05:22:32;;;;;;;21.60;17.40;;;;;;;-9.42;98.84;99728.41;4188095;28;20285;-61
2022/12/18 05:24:33;;;;;;;25.60;19.23;;;;;;;-9.37;98.82;99725.47;4190250;28;20209;-63
2022/12/18 05:26:35;;;;;;;35.83;21.03;;;;;;;-9.45;98.77;99712.72;4189675;28;20235;-62
2022/12/18 05:28:37;;;;;;;38.13;22.93;;;;;;;-9.49;98.37;99716.50;4192071;28;20466;-62
2022/12/18 05:30:41;;;;;;;32.80;17.70;;;;;;;-9.52;98.58;99716.69;4187149;28;20322;-61
2022/12/18 05:32:43;;;;;;;28.87;18.70;;;;;;;-9.43;98.45;99724.06;4197356;28;20654;-64
2022/12/18 05:34:45;;;;;;;31.43;20.70;;;;;;;-9.40;98.26;99721.22;4219969;28;20236;-62
2022/12/18 05:36:48;;;;;;;38.70;20.27;;;;;;;-9.47;98.13;99719.91;4201860;28;20247;-63
2022/12/18 05:38:50;;;;;;;35.07;21.27;;;;;;;-9.50;98.03;99733.34;4202644;28;21090;-61
2022/12/18 05:40:52;;;;;;;22.90;20.20;;;;;;;-9.58;97.94;99732.97;4206109;28;20298;-62
2022/12/18 05:42:54;;;;;;;32.17;19.80;;;;;;;-9.63;98.19;99740.34;4198323;28;20306;-62
2022/12/18 05:44:55;;;;;;;35.63;21.23;;;;;;;-9.67;98.12;99743.28;4188307;28;20242;-65
2022/12/18 05:46:57;;;;;;;28.60;16.43;;;;;;;-9.68;98.19;99741.59;4189867;28;20800;-62
2022/12/18 05:49:00;;;;;;;32.37;19.47;;;;;;;-9.68;98.23;99760.13;4197515;28;20226;-64
2022/12/18 05:51:24;;;;;;;25.57;19.17;;;;;;;-9.66;98.60;99747.63;4197725;28;20202;-63
2022/12/18 05:53:26;;;;;;;18.83;16.83;;;;;;;-9.52;98.83;99747.63;4198976;28;20230;-63
2022/12/18 05:55:28;;;;;;;22.60;16.10;;;;;;;-9.60;98.34;99756.06;4181688;28;20853;-64
2022/12/18 05:57:29;;;;;;;21.07;18.13;;;;;;;-9.64;98.29;99757.19;4206028;28;20678;-63
2022/12/18 05:59:31;;;;;;;19.90;17.40;;;;;;;-9.69;97.93;99759.25;4183942;28;20230;-64
2022/12/18 06:01:33;;;;;;;17.47;15.73;;;;;;;-9.71;98.52;99763.78;4188028;28;20303;-62
2022/12/18 06:03:35;;;;;;;19.87;17.83;;;;;;;-9.71;97.89;99763.78;4198921;28;20199;-64
2022/12/18 06:05:43;;;;;;;23.17;18.90;;;;;;;-9.72;98.37;99771.81;4187829;28;20248;-64
2022/12/18 06:07:44;;;;;;;19.33;13.70;;;;;;;-9.63;98.05;99768.63;4199526;28;20257;-64
2022/12/18 06:09:46;;;;;;;16.67;14.40;;;;;;;-9.61;97.72;99769.38;4181828;28;20310;-62
2022/12/18 06:11:48;;;;;;;23.77;17.93;;;;;;;-9.61;97.62;99764.91;4199858;28;20589;-64
2022/12/18 06:13:52;;;;;;;16.37;14.77;;;;;;;-9.66;97.78;99777.59;4197345;28;20302;-62
2022/12/18 06:16:02;;;;;;;16.97;15.30;;;;;;;-9.73;97.83;99778.06;4197922;27;20305;-62
2022/12/18 06:18:04;;;;;;;15.63;12.87;;;;;;;-9.68;97.29;99782.13;4198705;28;20234;-62
2022/12/18 06:20:06;;;;;;;22.97;16.40;;;;;;;-9.58;97.30;99785.94;4189277;28;20610;-64
2022/12/18 06:22:08;;;;;;;15.67;14.53;;;;;;;-9.51;96.93;99787.25;4203165;28;20682;-63
2022/12/18 06:24:10;;;;;;;17.03;15.43;;;;;;;-9.63;96.97;99795.09;4217776;27;20421;-62
2022/12/18 06:26:12;;;;;;;16.23;14.83;;;;;;;-9.58;96.85;99788.56;4198413;28;20195;-64
2022/12/18 06:28:14;;;;;;;16.90;13.90;;;;;;;-9.56;96.73;99789.31;4202693;28;20334;-61
2022/12/18 06:30:16;;;;;;;18.63;16.97;;;;;;;-9.61;96.27;99790.56;4182934;28;20208;-64
2022/12/18 06:32:17;;;;;;;14.37;13.23;;;;;;;-9.70;96.28;99777.88;4198786;28;20298;-63
2022/12/18 06:34:19;;;;;;;17.80;16.10;;;;;;;-9.72;96.41;99777.97;4214924;28;20257;-63
2022/12/18 06:36:21;;;;;;;18.17;15.53;;;;;;;-9.63;96.46;99769.47;4198972;28;20269;-63
2022/12/18 06:38:23;;;;;;;20.97;16.13;;;;;;;-9.52;96.37;99769.66;4202185;28;20227;-63
2022/12/18 06:40:24;;;;;;;18.17;15.07;;;;;;;-9.58;95.87;99772.69;4199581;28;20207;-62
2022/12/18 06:42:26;;;;;;;22.90;15.37;;;;;;;-9.57;96.36;99770.88;4218800;27;20229;-62
2022/12/18 06:44:28;;;;;;;20.70;16.63;;;;;;;-9.71;96.54;99769.09;4184267;28;20208;-63
2022/12/18 06:46:30;;;;;;;17.93;15.43;;;;;;;-9.72;96.93;99761.22;4186279;28;20235;-61
2022/12/18 06:48:32;;;;;;;18.80;16.80;;;;;;;-9.80;97.03;99774.97;4201057;28;20273;-61
2022/12/18 06:50:33;;;;;;;19.03;17.13;;;;;;;-9.78;96.99;99778.34;4187381;28;20257;-62
2022/12/18 06:52:36;;;;;;;22.63;14.40;;;;;;;-9.89;97.44;99775.50;4199683;28;20424;-62
2022/12/18 06:54:38;;;;;;;30.87;18.67;;;;;;;-9.93;97.45;99781.94;4199074;28;22546;-62
2022/12/18 06:56:40;;;;;;;17.67;15.43;;;;;;;-9.93;97.74;99783.72;4205304;28;20268;-61
2022/12/18 06:58:41;;;;;;;20.33;18.17;;;;;;;-9.95;97.74;99781.16;4177971;28;20262;-62
2022/12/18 07:00:43;;;;;;;19.07;17.27;;;;;;;-9.96;97.65;99782.09;4217411;27;20401;-62
2022/12/18 07:02:46;;;;;;;16.80;15.10;;;;;;;-9.95;97.40;99782.97;4199576;28;20207;-61
2022/12/18 07:04:48;;;;;;;23.13;14.77;;;;;;;-9.92;97.45;99772.19;4198523;28;20210;-64
2022/12/18 07:06:49;;;;;;;28.17;15.60;;;;;;;-9.93;97.68;99774.00;4182107;28;20235;-63
2022/12/18 07:08:53;;;;;;;16.27;14.87;;;;;;;-9.91;97.33;99774.75;4198757;28;20787;-62
2022/12/18 07:10:54;;;;;;;24.03;19.70;;;;;;;-9.92;97.00;99773.03;4202065;28;20210;-62
2022/12/18 07:12:57;;;;;;;17.33;15.83;;;;;;;-9.91;97.55;99777.38;4201682;28;20250;-63
2022/12/18 07:14:58;;;;;;;19.50;16.83;;;;;;;-9.98;97.34;99769.06;4181943;28;20238;-62
2022/12/18 07:17:00;;;;;;;16.83;15.40;;;;;;;-9.98;97.30;99770.75;4188423;28;20268;-63
2022/12/18 07:19:02;;;;;;;16.47;15.13;;;;;;;-9.91;97.25;99772.09;4197872;28;20210;-64
2022/12/18 07:21:09;;;;;;;19.43;17.53;;;;;;;-9.91;97.05;99781.81;4198158;28;20678;-61
2022/12/18 07:23:11;;;;;;;18.17;16.40;;;;;;;-9.87;97.29;99781.53;4198533;28;20247;-63
2022/12/18 07:25:13;;;;;;;21.60;15.73;;;;;;;-9.96;97.07;99782.09;4213025;27;20307;-64
2022/12/18 07:27:15;;;;;;;15.73;14.37;;;;;;;-9.95;97.00;99781.16;4188252;28;20833;-62
2022/12/18 07:29:17;;;;;;;19.30;17.57;;;;;;;-9.88;96.80;99787.78;4182461;28;20242;-62
2022/12/18 07:31:20;;;;;;;22.40;16.50;;;;;;;-9.77;96.75;99789.78;4184039;28;20887;-64
2022/12/18 07:33:22;;;;;;;17.07;15.43;;;;;;;-9.75;96.89;99796.69;4184816;28;20208;-62
2022/12/18 07:35:24;;;;;;;20.90;15.30;;;;;;;-9.71;96.65;99797.34;4181915;28;20297;-64
2022/12/18 07:37:26;;;;;;;22.70;14.53;;;;;;;-9.68;96.80;99795.34;4181427;28;20227;-63
2022/12/18 07:39:27;;;;;;;14.83;13.57;;;;;;;-9.66;96.69;99788.19;4214545;27;20328;-62
2022/12/18 07:41:29;;;;;;;16.87;15.10;;;;;;;-9.61;96.96;99786.09;4212778;27;20296;-62
2022/12/18 07:43:31;;;;;;;18.07;15.33;;;;;;;-9.62;97.31;99789.69;4183926;28;20263;-62
2022/12/18 07:45:33;;;;;;;20.23;14.40;;;;;;;-9.61;97.64;99796.69;4196111;28;20294;-62
2022/12/18 07:47:36;;;;;;;15.73;13.67;;;;;;;-9.62;97.46;99800.28;4206451;28;20365;-62
2022/12/18 07:49:38;;;;;;;16.70;14.47;;;;;;;-9.62;98.00;99795.00;4197991;28;20310;-63
2022/12/18 07:51:39;;;;;;;18.03;16.30;;;;;;;-9.62;97.62;99797.63;4187816;28;20301;-62
2022/12/18 07:53:41;;;;;;;19.20;15.00;;;;;;;-9.64;98.01;99812.78;4199815;28;20215;-63
2022/12/18 07:55:44;;;;;;;19.80;15.77;;;;;;;-9.60;97.86;99822.25;4181985;28;20295;-63
2022/12/18 07:58:06;;;;;;;17.03;15.20;;;;;;;-9.65;97.99;99821.66;4194453;27;20241;-64
2022/12/18 08:00:08;;;;;;;19.93;17.80;;;;;;;-9.65;97.63;99824.31;4201952;28;20206;-64
2022/12/18 08:02:10;;;;;;;19.80;18.00;;;;;;;-9.65;98.19;99824.31;4184916;28;20234;-64
2022/12/18 08:04:12;;;;;;;15.83;14.43;;;;;;;-9.62;98.06;99832.06;4183568;28;20207;-64
2022/12/18 08:06:14;;;;;;;16.13;14.07;;;;;;;-9.52;98.38;99837.66;4189632;28;20211;-64
2022/12/18 08:08:16;;;;;;;17.60;15.80;;;;;;;-9.52;98.21;99843.81;4198796;28;20978;-64
2022/12/18 08:10:18;;;;;;;23.43;16.30;;;;;;;-9.43;97.93;99837.09;4201570;28;20756;-64
2022/12/18 08:12:20;;;;;;;22.03;16.73;;;;;;;-9.44;97.98;99825.66;4181340;28;20250;-63
2022/12/18 08:14:22;;;;;;;18.40;16.87;;;;;;;-9.38;97.58;99819.97;4195939;28;20211;-63
2022/12/18 08:16:24;;;;;;;19.53;16.67;;;;;;;-9.22;97.53;99819.88;4185950;28;20301;-62
2022/12/18 08:18:26;;;;;;;18.50;16.60;;;;;;;-9.26;97.09;99813.06;4193643;28;20229;-63
2022/12/18 08:20:28;;;;;;;24.97;16.40;;;;;;;-9.11;97.38;99807.66;4193972;28;20298;-62
2022/12/18 08:22:29;;;;;;;19.33;17.73;;;;;;;-8.92;98.10;99805.56;4188541;28;20290;-63
2022/12/18 08:24:31;;;;;;;37.10;21.30;;;;;;;-8.77;97.82;99807.22;4193531;28;20238;-61
2022/12/18 08:26:33;;;;;;;26.83;19.10;;;;;;;-8.46;97.65;99795.47;4205446;28;20286;-60
2022/12/18 08:28:35;;;;;;;21.87;19.80;;;;;;;-8.03;98.22;99788.97;4203142;28;20233;-61
2022/12/18 08:30:37;;;;;;;20.20;15.93;;;;;;;-7.60;97.81;99793.91;4200986;28;20309;-63
2022/12/18 08:32:39;;;;;;;26.80;17.90;;;;;;;-7.11;95.38;99796.63;4192897;28;20212;-61
2022/12/18 08:34:41;;;;;;;19.40;14.90;;;;;;;-7.61;93.52;99792.19;4209600;28;20199;-60
2022/12/18 08:36:42;;;;;;;16.77;15.00;;;;;;;-7.23;93.78;99785.06;4192463;28;20207;-61
2022/12/18 08:38:44;;;;;;;16.47;14.80;;;;;;;-6.87;92.23;99776.25;4207283;28;20218;-63
2022/12/18 08:40:46;;;;;;;17.83;15.57;;;;;;;-7.29;91.68;99782.00;4197212;28;20237;-62
2022/12/18 08:45:09;;;;;;;21.53;15.17;;;;;;;-7.54;91.96;99761.59;4201794;28;20219;-61
2022/12/18 08:47:10;;;;;;;22.03;16.20;;;;;;;-7.49;92.16;99762.13;4200856;28;20294;-61
2022/12/18 08:49:12;;;;;;;20.57;14.70;;;;;;;-7.50;92.99;99765.72;4202094;28;20689;-61
2022/12/18 08:51:16;;;;;;;16.10;14.50;;;;;;;-7.49;93.02;99774.56;4183912;28;20204;-61
2022/12/18 08:53:18;;;;;;;17.33;15.07;;;;;;;-7.45;94.51;99766.28;4202441;28;20207;-63
2022/12/18 08:55:20;;;;;;;17.70;14.93;;;;;;;-7.43;95.40;99769.66;4187632;28;21292;-61
2022/12/18 08:57:23;;;;;;;23.73;13.80;;;;;;;-7.36;94.55;99776.25;4206945;28;20272;-61
2022/12/18 08:59:28;;;;;;;22.30;18.57;;;;;;;-7.25;94.55;99776.34;4199675;28;20297;-61
2022/12/18 09:01:29;;;;;;;38.47;22.03;;;;;;;-7.28;95.31;99787.19;4201251;28;20250;-61
2022/12/18 09:03:32;;;;;;;60.07;30.27;;;;;;;-7.24;95.33;99786.00;4202299;28;20239;-61
2022/12/18 09:05:34;;;;;;;56.63;28.13;;;;;;;-7.21;95.56;99800.91;4199764;28;20207;-60
2022/12/18 09:07:36;;;;;;;51.50;27.97;;;;;;;-7.23;96.45;99798.34;4187441;28;20231;-63
2022/12/18 09:09:38;;;;;;;44.03;25.40;;;;;;;-7.24;96.64;99812.59;4205052;28;20254;-61
2022/12/18 09:11:39;;;;;;;35.63;23.03;;;;;;;-7.20;96.11;99807.91;4185255;28;20630;-62
2022/12/18 09:13:41;;;;;;;31.10;21.67;;;;;;;-7.24;96.69;99801.97;4187550;28;20203;-60
2022/12/18 09:15:54;;;;;;;39.33;20.97;;;;;;;-7.19;96.64;99794.53;4202997;28;20694;-59
2022/12/18 09:17:55;;;;;;;29.73;22.13;;;;;;;-7.20;97.00;99795.47;4188800;28;20234;-62
2022/12/18 09:19:57;;;;;;;26.27;19.10;;;;;;;-7.14;97.18;99811.00;4191859;28;20234;-60
2022/12/18 09:21:59;;;;;;;28.63;20.07;;;;;;;-7.09;97.52;99805.34;4200585;28;20199;-63
2022/12/18 09:24:01;;;;;;;20.30;18.53;;;;;;;-6.94;97.69;99814.91;4190915;28;20244;-62
2022/12/18 09:26:03;;;;;;;23.23;19.90;;;;;;;-6.84;97.41;99816.78;4199223;28;20718;-59
2022/12/18 09:28:09;;;;;;;34.63;20.40;;;;;;;-6.78;97.68;99815.47;4188087;28;20232;-62
2022/12/18 09:30:11;;;;;;;22.50;18.73;;;;;;;-6.79;98.26;99819.09;4189796;28;20242;-61
2022/12/18 09:32:13;;;;;;;19.67;16.93;;;;;;;-6.60;98.36;99820.34;4187781;28;20203;-61
2022/12/18 09:34:22;;;;;;;28.17;19.70;;;;;;;-6.61;98.30;99823.13;4187532;28;20623;-61